sensor_id;sensor_type;location;lat;lon;timestamp;temperature;humidity
51579;DHT22;47998;53.242;6.386;2023-01-25T00:01:45;-0.20;99.90
51579;DHT22;47998;53.242;6.386;2023-01-25T00:04:11;-0.20;99.90
51579;DHT22;47998;53.242;6.386;2023-01-25T00:06:37;-0.20;99.90
51579;DHT22;47998;53.242;6.386;2023-01-25T00:09:03;-0.20;99.90
51579;DHT22;47998;53.242;6.386;2023-01-25T00:11:29;-0.20;99.90
51579;DHT22;47998;53.242;6.386;2023-01-25T00:13:56;-0.20;99.90
51579;DHT22;47998;53.242;6.386;2023-01-25T00:16:22;-0.10;99.90
51579;DHT22;47998;53.242;6.386;2023-01-25T00:18:49;-0.10;99.90
51579;DHT22;47998;53.242;6.386;2023-01-25T00:21:17;-0.10;99.90
51579;DHT22;47998;53.242;6.386;2023-01-25T00:23:43;-0.10;99.90
51579;DHT22;47998;53.242;6.386;2023-01-25T00:26:08;-0.10;99.90
51579;DHT22;47998;53.242;6.386;2023-01-25T00:28:34;-0.10;99.90
51579;DHT22;47998;53.242;6.386;2023-01-25T00:31:02;-0.10;99.90
51579;DHT22;47998;53.242;6.386;2023-01-25T00:33:32;-0.10;99.90
51579;DHT22;47998;53.242;6.386;2023-01-25T00:36:00;-0.20;99.90
51579;DHT22;47998;53.242;6.386;2023-01-25T00:38:34;-0.10;99.90
51579;DHT22;47998;53.242;6.386;2023-01-25T00:41:02;-0.20;99.90
51579;DHT22;47998;53.242;6.386;2023-01-25T00:43:28;-0.20;99.90
51579;DHT22;47998;53.242;6.386;2023-01-25T00:45:59;-0.30;99.90
51579;DHT22;47998;53.242;6.386;2023-01-25T00:48:25;-0.30;99.90
51579;DHT22;47998;53.242;6.386;2023-01-25T00:50:51;-0.30;99.90
51579;DHT22;47998;53.242;6.386;2023-01-25T00:53:16;-0.30;99.90
51579;DHT22;47998;53.242;6.386;2023-01-25T00:55:51;-0.30;99.90
51579;DHT22;47998;53.242;6.386;2023-01-25T00:58:17;-0.30;99.90
51579;DHT22;47998;53.242;6.386;2023-01-25T01:00:42;-0.30;99.90
51579;DHT22;47998;53.242;6.386;2023-01-25T01:03:08;-0.30;99.90
51579;DHT22;47998;53.242;6.386;2023-01-25T01:05:34;-0.40;99.90
51579;DHT22;47998;53.242;6.386;2023-01-25T01:08:01;-0.40;99.90
51579;DHT22;47998;53.242;6.386;2023-01-25T01:10:27;-0.40;99.90
51579;DHT22;47998;53.242;6.386;2023-01-25T01:12:53;-0.40;99.90
51579;DHT22;47998;53.242;6.386;2023-01-25T01:15:19;-0.40;99.90
51579;DHT22;47998;53.242;6.386;2023-01-25T01:17:44;-0.50;99.90
51579;DHT22;47998;53.242;6.386;2023-01-25T01:20:10;-0.20;99.90
51579;DHT22;47998;53.242;6.386;2023-01-25T01:22:36;-0.50;99.90
51579;DHT22;47998;53.242;6.386;2023-01-25T01:25:02;-0.50;99.90
51579;DHT22;47998;53.242;6.386;2023-01-25T01:27:28;-0.50;99.90
51579;DHT22;47998;53.242;6.386;2023-01-25T01:29:53;-0.50;99.90
51579;DHT22;47998;53.242;6.386;2023-01-25T01:32:19;-0.50;99.90
51579;DHT22;47998;53.242;6.386;2023-01-25T01:34:45;-0.50;99.90
51579;DHT22;47998;53.242;6.386;2023-01-25T01:37:11;-0.50;99.90
51579;DHT22;47998;53.242;6.386;2023-01-25T01:39:37;-0.50;99.90
51579;DHT22;47998;53.242;6.386;2023-01-25T01:42:03;-0.50;99.90
51579;DHT22;47998;53.242;6.386;2023-01-25T01:47:29;0.00;99.90
51579;DHT22;47998;53.242;6.386;2023-01-25T01:50:19;-0.50;99.90
51579;DHT22;47998;53.242;6.386;2023-01-25T01:52:45;-0.50;99.90
51579;DHT22;47998;53.242;6.386;2023-01-25T01:55:16;-0.50;99.90
51579;DHT22;47998;53.242;6.386;2023-01-25T01:57:46;-0.50;99.90
51579;DHT22;47998;53.242;6.386;2023-01-25T02:00:15;-0.50;99.90
51579;DHT22;47998;53.242;6.386;2023-01-25T02:02:42;-0.40;99.90
51579;DHT22;47998;53.242;6.386;2023-01-25T02:05:11;-0.40;99.90
51579;DHT22;47998;53.242;6.386;2023-01-25T02:07:39;-0.50;99.90
51579;DHT22;47998;53.242;6.386;2023-01-25T02:10:07;-0.50;99.90
51579;DHT22;47998;53.242;6.386;2023-01-25T02:12:34;-0.40;99.90
51579;DHT22;47998;53.242;6.386;2023-01-25T02:15:01;-0.40;99.90
51579;DHT22;47998;53.242;6.386;2023-01-25T02:17:33;-0.40;99.90
51579;DHT22;47998;53.242;6.386;2023-01-25T02:25:08;-0.50;99.90
51579;DHT22;47998;53.242;6.386;2023-01-25T02:27:38;-0.60;99.90
51579;DHT22;47998;53.242;6.386;2023-01-25T02:30:06;-0.60;99.90
51579;DHT22;47998;53.242;6.386;2023-01-25T02:32:32;-0.60;99.90
51579;DHT22;47998;53.242;6.386;2023-01-25T02:34:58;-0.60;99.90
51579;DHT22;47998;53.242;6.386;2023-01-25T02:37:23;-0.60;99.90
51579;DHT22;47998;53.242;6.386;2023-01-25T02:39:50;-0.60;99.90
51579;DHT22;47998;53.242;6.386;2023-01-25T02:42:16;-0.60;99.90
51579;DHT22;47998;53.242;6.386;2023-01-25T02:44:41;-0.60;99.90
51579;DHT22;47998;53.242;6.386;2023-01-25T02:47:08;-0.70;99.90
51579;DHT22;47998;53.242;6.386;2023-01-25T02:49:37;-0.70;99.90
51579;DHT22;47998;53.242;6.386;2023-01-25T02:52:03;-0.50;99.90
51579;DHT22;47998;53.242;6.386;2023-01-25T02:54:29;-0.70;99.90
51579;DHT22;47998;53.242;6.386;2023-01-25T02:56:55;-0.70;99.90
51579;DHT22;47998;53.242;6.386;2023-01-25T02:59:21;-0.70;99.90
51579;DHT22;47998;53.242;6.386;2023-01-25T03:01:47;-0.70;99.90
51579;DHT22;47998;53.242;6.386;2023-01-25T03:04:13;-0.70;99.90
51579;DHT22;47998;53.242;6.386;2023-01-25T03:06:40;-0.70;99.90
51579;DHT22;47998;53.242;6.386;2023-01-25T03:09:09;-0.70;99.90
51579;DHT22;47998;53.242;6.386;2023-01-25T03:11:35;-0.70;99.90
51579;DHT22;47998;53.242;6.386;2023-01-25T03:14:01;-0.60;99.90
51579;DHT22;47998;53.242;6.386;2023-01-25T03:16:27;-0.70;99.90
51579;DHT22;47998;53.242;6.386;2023-01-25T03:18:53;-0.70;99.90
51579;DHT22;47998;53.242;6.386;2023-01-25T03:21:20;-0.70;99.90
51579;DHT22;47998;53.242;6.386;2023-01-25T03:23:47;-0.70;99.90
51579;DHT22;47998;53.242;6.386;2023-01-25T03:26:19;-0.70;99.90
51579;DHT22;47998;53.242;6.386;2023-01-25T03:28:45;-0.70;99.90
51579;DHT22;47998;53.242;6.386;2023-01-25T03:31:14;-0.70;99.90
51579;DHT22;47998;53.242;6.386;2023-01-25T03:33:40;-0.70;99.90
51579;DHT22;47998;53.242;6.386;2023-01-25T03:36:06;-0.70;99.90
51579;DHT22;47998;53.242;6.386;2023-01-25T03:38:35;-0.70;99.90
51579;DHT22;47998;53.242;6.386;2023-01-25T03:41:02;-0.80;99.90
51579;DHT22;47998;53.242;6.386;2023-01-25T03:43:29;-0.80;99.90
51579;DHT22;47998;53.242;6.386;2023-01-25T03:45:57;-0.50;99.90
51579;DHT22;47998;53.242;6.386;2023-01-25T03:48:23;-0.80;99.90
51579;DHT22;47998;53.242;6.386;2023-01-25T03:50:55;-0.70;99.90
51579;DHT22;47998;53.242;6.386;2023-01-25T03:53:25;-0.70;99.90
51579;DHT22;47998;53.242;6.386;2023-01-25T03:55:53;-0.70;99.90
51579;DHT22;47998;53.242;6.386;2023-01-25T03:58:19;-0.70;99.90
51579;DHT22;47998;53.242;6.386;2023-01-25T04:00:45;-0.70;99.90
51579;DHT22;47998;53.242;6.386;2023-01-25T04:03:11;-0.70;99.90
51579;DHT22;47998;53.242;6.386;2023-01-25T04:05:36;-0.70;99.90
51579;DHT22;47998;53.242;6.386;2023-01-25T04:08:02;-0.70;99.90
51579;DHT22;47998;53.242;6.386;2023-01-25T04:10:28;-0.70;99.90
51579;DHT22;47998;53.242;6.386;2023-01-25T04:12:53;-0.70;99.90
51579;DHT22;47998;53.242;6.386;2023-01-25T04:15:19;-0.70;99.90
51579;DHT22;47998;53.242;6.386;2023-01-25T04:17:45;-0.80;99.90
51579;DHT22;47998;53.242;6.386;2023-01-25T04:20:10;-0.70;99.90
51579;DHT22;47998;53.242;6.386;2023-01-25T04:22:36;-0.80;99.90
51579;DHT22;47998;53.242;6.386;2023-01-25T04:25:02;-0.90;99.90
51579;DHT22;47998;53.242;6.386;2023-01-25T04:27:28;-0.90;99.90
51579;DHT22;47998;53.242;6.386;2023-01-25T04:29:54;-0.60;99.90
51579;DHT22;47998;53.242;6.386;2023-01-25T04:32:19;-1.00;99.90
51579;DHT22;47998;53.242;6.386;2023-01-25T04:34:45;-0.70;99.90
51579;DHT22;47998;53.242;6.386;2023-01-25T04:37:11;-0.90;99.90
51579;DHT22;47998;53.242;6.386;2023-01-25T04:39:36;-0.90;99.90
51579;DHT22;47998;53.242;6.386;2023-01-25T04:42:02;-0.90;99.90
51579;DHT22;47998;53.242;6.386;2023-01-25T04:44:28;-0.90;99.90
51579;DHT22;47998;53.242;6.386;2023-01-25T04:46:53;-0.80;99.90
51579;DHT22;47998;53.242;6.386;2023-01-25T04:49:19;-0.90;99.90
51579;DHT22;47998;53.242;6.386;2023-01-25T04:51:45;-0.90;99.90
51579;DHT22;47998;53.242;6.386;2023-01-25T04:54:10;-0.90;99.90
51579;DHT22;47998;53.242;6.386;2023-01-25T04:56:36;-0.90;99.90
51579;DHT22;47998;53.242;6.386;2023-01-25T04:59:02;-0.90;99.90
51579;DHT22;47998;53.242;6.386;2023-01-25T05:01:28;-0.60;99.90
51579;DHT22;47998;53.242;6.386;2023-01-25T05:03:53;-1.00;99.90
51579;DHT22;47998;53.242;6.386;2023-01-25T05:06:19;-0.70;99.90
51579;DHT22;47998;53.242;6.386;2023-01-25T05:08:45;-1.00;99.90
51579;DHT22;47998;53.242;6.386;2023-01-25T05:11:10;-1.00;99.90
51579;DHT22;47998;53.242;6.386;2023-01-25T05:13:36;-1.00;99.90
51579;DHT22;47998;53.242;6.386;2023-01-25T05:16:02;-1.00;99.90
51579;DHT22;47998;53.242;6.386;2023-01-25T05:18:28;-1.00;99.90
51579;DHT22;47998;53.242;6.386;2023-01-25T05:20:54;-1.00;99.90
51579;DHT22;47998;53.242;6.386;2023-01-25T05:23:20;-1.00;99.90
51579;DHT22;47998;53.242;6.386;2023-01-25T05:25:46;-1.00;99.90
51579;DHT22;47998;53.242;6.386;2023-01-25T05:28:30;-1.10;99.90
51579;DHT22;47998;53.242;6.386;2023-01-25T05:30:56;-1.00;99.90
51579;DHT22;47998;53.242;6.386;2023-01-25T05:33:22;-1.00;99.90
51579;DHT22;47998;53.242;6.386;2023-01-25T05:35:47;-1.00;99.90
51579;DHT22;47998;53.242;6.386;2023-01-25T05:38:13;-1.00;99.90
51579;DHT22;47998;53.242;6.386;2023-01-25T05:40:39;-1.00;99.90
51579;DHT22;47998;53.242;6.386;2023-01-25T05:43:04;-1.00;99.90
51579;DHT22;47998;53.242;6.386;2023-01-25T05:45:30;-1.00;99.90
51579;DHT22;47998;53.242;6.386;2023-01-25T05:47:57;-1.00;99.90
51579;DHT22;47998;53.242;6.386;2023-01-25T05:50:24;-0.90;99.90
51579;DHT22;47998;53.242;6.386;2023-01-25T05:52:50;-1.00;99.90
51579;DHT22;47998;53.242;6.386;2023-01-25T05:55:16;-1.00;99.90
51579;DHT22;47998;53.242;6.386;2023-01-25T05:57:42;-0.90;99.90
51579;DHT22;47998;53.242;6.386;2023-01-25T06:00:09;-0.90;99.90
51579;DHT22;47998;53.242;6.386;2023-01-25T06:02:35;-0.90;99.90
51579;DHT22;47998;53.242;6.386;2023-01-25T06:05:02;-1.00;99.90
51579;DHT22;47998;53.242;6.386;2023-01-25T06:07:27;-1.00;99.90
51579;DHT22;47998;53.242;6.386;2023-01-25T06:09:53;-1.00;99.90
51579;DHT22;47998;53.242;6.386;2023-01-25T06:12:20;-1.00;99.90
51579;DHT22;47998;53.242;6.386;2023-01-25T06:14:46;-0.80;99.90
51579;DHT22;47998;53.242;6.386;2023-01-25T06:17:12;-1.00;99.90
51579;DHT22;47998;53.242;6.386;2023-01-25T06:19:38;-1.00;99.90
51579;DHT22;47998;53.242;6.386;2023-01-25T06:22:04;-1.00;99.90
51579;DHT22;47998;53.242;6.386;2023-01-25T06:24:30;-1.00;99.90
51579;DHT22;47998;53.242;6.386;2023-01-25T06:26:55;-1.00;99.90
51579;DHT22;47998;53.242;6.386;2023-01-25T06:29:21;-1.00;99.90
51579;DHT22;47998;53.242;6.386;2023-01-25T06:31:47;-1.10;99.90
51579;DHT22;47998;53.242;6.386;2023-01-25T06:34:13;-1.10;99.90
51579;DHT22;47998;53.242;6.386;2023-01-25T06:36:38;-1.20;99.90
51579;DHT22;47998;53.242;6.386;2023-01-25T06:39:04;-1.20;99.90
51579;DHT22;47998;53.242;6.386;2023-01-25T06:41:30;-1.30;99.90
51579;DHT22;47998;53.242;6.386;2023-01-25T06:43:55;-1.30;99.90
51579;DHT22;47998;53.242;6.386;2023-01-25T06:46:22;-1.30;99.90
51579;DHT22;47998;53.242;6.386;2023-01-25T06:48:47;-1.30;99.90
51579;DHT22;47998;53.242;6.386;2023-01-25T06:51:14;-1.30;99.90
51579;DHT22;47998;53.242;6.386;2023-01-25T06:53:42;-1.30;99.90
51579;DHT22;47998;53.242;6.386;2023-01-25T06:56:14;-1.30;99.90
51579;DHT22;47998;53.242;6.386;2023-01-25T06:58:42;-1.30;99.90
51579;DHT22;47998;53.242;6.386;2023-01-25T07:01:13;-1.30;99.90
51579;DHT22;47998;53.242;6.386;2023-01-25T07:03:40;-1.30;99.90
51579;DHT22;47998;53.242;6.386;2023-01-25T07:06:07;-1.40;99.90
51579;DHT22;47998;53.242;6.386;2023-01-25T07:08:34;-1.40;99.90
51579;DHT22;47998;53.242;6.386;2023-01-25T07:11:03;-1.50;99.90
51579;DHT22;47998;53.242;6.386;2023-01-25T07:13:31;-1.50;99.90
51579;DHT22;47998;53.242;6.386;2023-01-25T07:16:00;-1.50;99.90
51579;DHT22;47998;53.242;6.386;2023-01-25T07:18:27;-1.50;99.90
51579;DHT22;47998;53.242;6.386;2023-01-25T07:20:55;-1.50;99.90
51579;DHT22;47998;53.242;6.386;2023-01-25T07:23:26;-1.50;99.90
51579;DHT22;47998;53.242;6.386;2023-01-25T07:25:52;-1.50;99.90
51579;DHT22;47998;53.242;6.386;2023-01-25T07:28:18;-1.50;99.90
51579;DHT22;47998;53.242;6.386;2023-01-25T07:30:44;-1.50;99.90
51579;DHT22;47998;53.242;6.386;2023-01-25T07:33:10;-1.50;99.90
51579;DHT22;47998;53.242;6.386;2023-01-25T07:35:36;-1.50;99.90
51579;DHT22;47998;53.242;6.386;2023-01-25T07:38:03;-1.50;99.90
51579;DHT22;47998;53.242;6.386;2023-01-25T07:40:28;-1.50;99.90
51579;DHT22;47998;53.242;6.386;2023-01-25T07:42:54;-1.50;99.90
51579;DHT22;47998;53.242;6.386;2023-01-25T07:45:20;-1.30;99.90
51579;DHT22;47998;53.242;6.386;2023-01-25T07:47:46;-1.50;99.90
51579;DHT22;47998;53.242;6.386;2023-01-25T07:50:12;-1.40;99.90
51579;DHT22;47998;53.242;6.386;2023-01-25T07:52:38;-1.40;99.90
51579;DHT22;47998;53.242;6.386;2023-01-25T07:55:04;-1.40;99.90
51579;DHT22;47998;53.242;6.386;2023-01-25T07:57:30;-1.40;99.90
51579;DHT22;47998;53.242;6.386;2023-01-25T07:59:56;-1.30;99.90
51579;DHT22;47998;53.242;6.386;2023-01-25T08:02:22;-1.40;99.90
51579;DHT22;47998;53.242;6.386;2023-01-25T08:04:47;-1.30;99.90
51579;DHT22;47998;53.242;6.386;2023-01-25T08:07:14;-1.30;99.90
51579;DHT22;47998;53.242;6.386;2023-01-25T08:09:40;-1.30;99.90
51579;DHT22;47998;53.242;6.386;2023-01-25T08:12:07;-1.30;99.90
51579;DHT22;47998;53.242;6.386;2023-01-25T08:14:33;-1.30;99.90
51579;DHT22;47998;53.242;6.386;2023-01-25T08:16:59;-1.30;99.90
51579;DHT22;47998;53.242;6.386;2023-01-25T08:19:25;-0.90;99.90
51579;DHT22;47998;53.242;6.386;2023-01-25T08:21:51;-1.30;99.90
51579;DHT22;47998;53.242;6.386;2023-01-25T08:24:17;-1.30;99.90
51579;DHT22;47998;53.242;6.386;2023-01-25T08:26:43;-1.30;99.90
51579;DHT22;47998;53.242;6.386;2023-01-25T08:29:12;-1.30;99.90
51579;DHT22;47998;53.242;6.386;2023-01-25T08:31:40;-1.30;99.90
51579;DHT22;47998;53.242;6.386;2023-01-25T08:34:06;-1.00;99.90
51579;DHT22;47998;53.242;6.386;2023-01-25T08:36:32;-1.30;99.90
51579;DHT22;47998;53.242;6.386;2023-01-25T08:39:04;-1.30;99.90
51579;DHT22;47998;53.242;6.386;2023-01-25T08:41:31;-1.30;99.90
51579;DHT22;47998;53.242;6.386;2023-01-25T08:43:57;-1.30;99.90
51579;DHT22;47998;53.242;6.386;2023-01-25T08:46:25;-1.30;99.90
51579;DHT22;47998;53.242;6.386;2023-01-25T08:48:55;-1.30;99.90
51579;DHT22;47998;53.242;6.386;2023-01-25T08:51:21;-1.30;99.90
51579;DHT22;47998;53.242;6.386;2023-01-25T08:53:47;-1.20;99.90
51579;DHT22;47998;53.242;6.386;2023-01-25T08:56:14;-1.30;99.90
51579;DHT22;47998;53.242;6.386;2023-01-25T08:58:42;-1.30;99.90
51579;DHT22;47998;53.242;6.386;2023-01-25T09:01:10;-1.20;99.90
51579;DHT22;47998;53.242;6.386;2023-01-25T09:03:42;-1.20;99.90
51579;DHT22;47998;53.242;6.386;2023-01-25T09:06:09;-1.10;99.90
51579;DHT22;47998;53.242;6.386;2023-01-25T09:08:35;-1.10;99.90
51579;DHT22;47998;53.242;6.386;2023-01-25T09:11:28;-1.00;99.90
51579;DHT22;47998;53.242;6.386;2023-01-25T09:13:54;-1.10;99.90
51579;DHT22;47998;53.242;6.386;2023-01-25T09:16:22;-1.10;99.90
51579;DHT22;47998;53.242;6.386;2023-01-25T09:18:57;-1.10;99.90
51579;DHT22;47998;53.242;6.386;2023-01-25T09:21:23;-1.10;99.90
51579;DHT22;47998;53.242;6.386;2023-01-25T09:23:50;-1.00;99.90
51579;DHT22;47998;53.242;6.386;2023-01-25T09:26:17;-1.00;99.90
51579;DHT22;47998;53.242;6.386;2023-01-25T09:28:48;-1.00;99.90
51579;DHT22;47998;53.242;6.386;2023-01-25T09:31:15;-0.90;99.90
51579;DHT22;47998;53.242;6.386;2023-01-25T09:33:41;-0.90;99.90
51579;DHT22;47998;53.242;6.386;2023-01-25T09:36:07;-0.80;99.90
51579;DHT22;47998;53.242;6.386;2023-01-25T09:38:33;-0.80;99.90
51579;DHT22;47998;53.242;6.386;2023-01-25T09:44:17;-0.80;99.90
51579;DHT22;47998;53.242;6.386;2023-01-25T09:46:51;-0.80;99.90
51579;DHT22;47998;53.242;6.386;2023-01-25T09:54:46;-0.70;99.90
51579;DHT22;47998;53.242;6.386;2023-01-25T09:59:55;-0.70;99.90
51579;DHT22;47998;53.242;6.386;2023-01-25T10:02:37;-0.70;99.90
51579;DHT22;47998;53.242;6.386;2023-01-25T10:05:14;-0.60;99.90
51579;DHT22;47998;53.242;6.386;2023-01-25T10:07:55;-0.20;99.90
51579;DHT22;47998;53.242;6.386;2023-01-25T10:10:39;-0.50;99.90
51579;DHT22;47998;53.242;6.386;2023-01-25T10:13:10;-0.50;99.90
51579;DHT22;47998;53.242;6.386;2023-01-25T10:15:40;-0.40;99.90
51579;DHT22;47998;53.242;6.386;2023-01-25T10:26:06;-0.40;99.90
51579;DHT22;47998;53.242;6.386;2023-01-25T10:29:03;-0.40;99.90
51579;DHT22;47998;53.242;6.386;2023-01-25T10:31:46;-0.40;99.90
51579;DHT22;47998;53.242;6.386;2023-01-25T10:34:37;-0.40;99.90
51579;DHT22;47998;53.242;6.386;2023-01-25T10:37:33;-0.40;99.90
51579;DHT22;47998;53.242;6.386;2023-01-25T10:42:43;-0.40;99.90
51579;DHT22;47998;53.242;6.386;2023-01-25T10:45:14;-0.40;99.90
51579;DHT22;47998;53.242;6.386;2023-01-25T10:47:47;-0.40;99.90
51579;DHT22;47998;53.242;6.386;2023-01-25T10:50:54;-0.40;99.90
51579;DHT22;47998;53.242;6.386;2023-01-25T10:53:36;-0.30;99.90
51579;DHT22;47998;53.242;6.386;2023-01-25T10:58:43;-0.30;99.90
51579;DHT22;47998;53.242;6.386;2023-01-25T11:03:51;-0.20;99.90
51579;DHT22;47998;53.242;6.386;2023-01-25T11:06:35;-0.20;99.90
51579;DHT22;47998;53.242;6.386;2023-01-25T11:12:03;-0.20;99.90
51579;DHT22;47998;53.242;6.386;2023-01-25T11:14:32;-0.10;99.90
51579;DHT22;47998;53.242;6.386;2023-01-25T11:16:59;-0.10;99.90
51579;DHT22;47998;53.242;6.386;2023-01-25T11:21:59;-0.10;99.90
51579;DHT22;47998;53.242;6.386;2023-01-25T11:24:27;-0.10;99.90
51579;DHT22;47998;53.242;6.386;2023-01-25T11:27:12;-0.10;99.90
51579;DHT22;47998;53.242;6.386;2023-01-25T11:29:38;0.00;99.90
51579;DHT22;47998;53.242;6.386;2023-01-25T11:32:13;0.00;99.90
51579;DHT22;47998;53.242;6.386;2023-01-25T11:34:39;0.00;99.90
51579;DHT22;47998;53.242;6.386;2023-01-25T11:50:43;0.20;99.90
51579;DHT22;47998;53.242;6.386;2023-01-25T11:59:42;0.30;99.90
51579;DHT22;47998;53.242;6.386;2023-01-25T12:02:20;0.30;99.90
51579;DHT22;47998;53.242;6.386;2023-01-25T12:05:22;0.60;99.90
51579;DHT22;47998;53.242;6.386;2023-01-25T12:14:28;0.40;99.90
51579;DHT22;47998;53.242;6.386;2023-01-25T12:27:57;0.40;99.90
51579;DHT22;47998;53.242;6.386;2023-01-25T12:33:14;0.40;99.90
51579;DHT22;47998;53.242;6.386;2023-01-25T12:38:40;0.50;99.90
51579;DHT22;47998;53.242;6.386;2023-01-25T12:44:29;0.50;99.90
51579;DHT22;47998;53.242;6.386;2023-01-25T12:50:12;0.60;99.90
51579;DHT22;47998;53.242;6.386;2023-01-25T12:52:44;0.60;99.90
51579;DHT22;47998;53.242;6.386;2023-01-25T12:55:13;0.50;99.90
51579;DHT22;47998;53.242;6.386;2023-01-25T13:03:26;0.50;99.90
51579;DHT22;47998;53.242;6.386;2023-01-25T13:06:13;0.50;99.90
51579;DHT22;47998;53.242;6.386;2023-01-25T13:11:33;0.50;99.90
51579;DHT22;47998;53.242;6.386;2023-01-25T13:16:48;0.50;99.90
51579;DHT22;47998;53.242;6.386;2023-01-25T13:21:54;0.50;99.90
51579;DHT22;47998;53.242;6.386;2023-01-25T13:31:55;0.60;99.90
51579;DHT22;47998;53.242;6.386;2023-01-25T13:40:25;0.60;99.90
51579;DHT22;47998;53.242;6.386;2023-01-25T13:43:01;0.60;99.90
51579;DHT22;47998;53.242;6.386;2023-01-25T13:45:29;0.60;99.90
51579;DHT22;47998;53.242;6.386;2023-01-25T13:48:11;0.70;99.90
51579;DHT22;47998;53.242;6.386;2023-01-25T13:51:04;0.60;99.90
51579;DHT22;47998;53.242;6.386;2023-01-25T13:53:28;0.60;99.90
51579;DHT22;47998;53.242;6.386;2023-01-25T13:55:58;0.70;99.90
51579;DHT22;47998;53.242;6.386;2023-01-25T14:01:00;0.70;99.90
51579;DHT22;47998;53.242;6.386;2023-01-25T14:06:00;0.80;99.90
51579;DHT22;47998;53.242;6.386;2023-01-25T14:08:31;0.80;99.90
51579;DHT22;47998;53.242;6.386;2023-01-25T14:10:57;1.10;99.90
51579;DHT22;47998;53.242;6.386;2023-01-25T14:13:23;0.70;99.90
51579;DHT22;47998;53.242;6.386;2023-01-25T14:15:53;0.80;99.90
51579;DHT22;47998;53.242;6.386;2023-01-25T14:18:20;0.70;99.90
51579;DHT22;47998;53.242;6.386;2023-01-25T14:20:48;0.70;99.90
51579;DHT22;47998;53.242;6.386;2023-01-25T14:23:26;0.70;99.90
51579;DHT22;47998;53.242;6.386;2023-01-25T14:25:54;0.70;99.90
51579;DHT22;47998;53.242;6.386;2023-01-25T14:28:20;0.70;99.90
51579;DHT22;47998;53.242;6.386;2023-01-25T14:30:51;0.70;99.90
51579;DHT22;47998;53.242;6.386;2023-01-25T14:35:44;0.70;99.90
51579;DHT22;47998;53.242;6.386;2023-01-25T14:38:24;0.70;99.90
51579;DHT22;47998;53.242;6.386;2023-01-25T14:40:53;1.00;99.90
51579;DHT22;47998;53.242;6.386;2023-01-25T14:43:20;0.60;99.90
51579;DHT22;47998;53.242;6.386;2023-01-25T14:45:47;0.70;99.90
51579;DHT22;47998;53.242;6.386;2023-01-25T14:48:39;0.60;99.90
51579;DHT22;47998;53.242;6.386;2023-01-25T14:51:11;0.70;99.90
51579;DHT22;47998;53.242;6.386;2023-01-25T14:53:41;0.60;99.90
51579;DHT22;47998;53.242;6.386;2023-01-25T14:56:30;0.60;99.90
51579;DHT22;47998;53.242;6.386;2023-01-25T14:58:57;0.60;99.90
51579;DHT22;47998;53.242;6.386;2023-01-25T15:01:39;0.60;99.90
51579;DHT22;47998;53.242;6.386;2023-01-25T15:04:11;0.60;99.90
51579;DHT22;47998;53.242;6.386;2023-01-25T15:06:49;0.70;99.90
51579;DHT22;47998;53.242;6.386;2023-01-25T15:09:40;0.50;99.90
51579;DHT22;47998;53.242;6.386;2023-01-25T15:14:48;0.70;99.90
51579;DHT22;47998;53.242;6.386;2023-01-25T15:20:02;0.50;99.90
51579;DHT22;47998;53.242;6.386;2023-01-25T15:22:28;0.50;99.90
51579;DHT22;47998;53.242;6.386;2023-01-25T15:24:54;0.50;99.90
51579;DHT22;47998;53.242;6.386;2023-01-25T15:27:20;0.50;99.90
51579;DHT22;47998;53.242;6.386;2023-01-25T15:29:45;0.50;99.90
51579;DHT22;47998;53.242;6.386;2023-01-25T15:32:18;0.50;99.90
51579;DHT22;47998;53.242;6.386;2023-01-25T15:34:45;0.60;99.90
51579;DHT22;47998;53.242;6.386;2023-01-25T15:37:11;0.50;99.90
51579;DHT22;47998;53.242;6.386;2023-01-25T15:39:37;0.70;99.90
51579;DHT22;47998;53.242;6.386;2023-01-25T15:42:04;0.40;99.90
51579;DHT22;47998;53.242;6.386;2023-01-25T15:44:30;0.40;99.90
51579;DHT22;47998;53.242;6.386;2023-01-25T15:46:56;0.40;99.90
51579;DHT22;47998;53.242;6.386;2023-01-25T15:49:25;0.30;99.90
51579;DHT22;47998;53.242;6.386;2023-01-25T15:51:52;0.30;99.90
51579;DHT22;47998;53.242;6.386;2023-01-25T15:54:19;0.70;99.90
51579;DHT22;47998;53.242;6.386;2023-01-25T15:56:48;0.30;99.90
51579;DHT22;47998;53.242;6.386;2023-01-25T15:59:17;0.30;99.90
51579;DHT22;47998;53.242;6.386;2023-01-25T16:01:43;0.30;99.90
51579;DHT22;47998;53.242;6.386;2023-01-25T16:04:10;0.30;99.90
51579;DHT22;47998;53.242;6.386;2023-01-25T16:06:48;0.30;99.90
51579;DHT22;47998;53.242;6.386;2023-01-25T16:09:18;0.50;99.90
51579;DHT22;47998;53.242;6.386;2023-01-25T16:11:51;0.20;99.90
51579;DHT22;47998;53.242;6.386;2023-01-25T16:14:17;0.20;99.90
51579;DHT22;47998;53.242;6.386;2023-01-25T16:16:45;0.20;99.90
51579;DHT22;47998;53.242;6.386;2023-01-25T16:19:13;0.20;99.90
51579;DHT22;47998;53.242;6.386;2023-01-25T16:21:40;0.20;99.90
51579;DHT22;47998;53.242;6.386;2023-01-25T16:24:06;0.10;99.90
51579;DHT22;47998;53.242;6.386;2023-01-25T16:26:32;0.10;99.90
51579;DHT22;47998;53.242;6.386;2023-01-25T16:28:59;0.10;99.90
51579;DHT22;47998;53.242;6.386;2023-01-25T16:31:25;0.20;99.90
51579;DHT22;47998;53.242;6.386;2023-01-25T16:33:50;0.10;99.90
51579;DHT22;47998;53.242;6.386;2023-01-25T16:36:18;0.10;99.90
51579;DHT22;47998;53.242;6.386;2023-01-25T16:38:44;0.10;99.90
51579;DHT22;47998;53.242;6.386;2023-01-25T16:41:11;0.10;99.90
51579;DHT22;47998;53.242;6.386;2023-01-25T16:43:45;0.10;99.90
51579;DHT22;47998;53.242;6.386;2023-01-25T16:46:15;0.00;99.90
51579;DHT22;47998;53.242;6.386;2023-01-25T16:48:42;0.00;99.90
51579;DHT22;47998;53.242;6.386;2023-01-25T16:51:35;0.10;99.90
51579;DHT22;47998;53.242;6.386;2023-01-25T16:54:00;0.00;99.90
51579;DHT22;47998;53.242;6.386;2023-01-25T16:56:29;-0.10;99.90
51579;DHT22;47998;53.242;6.386;2023-01-25T16:59:00;-0.10;99.90
51579;DHT22;47998;53.242;6.386;2023-01-25T17:01:26;-0.10;99.90
51579;DHT22;47998;53.242;6.386;2023-01-25T17:03:53;-0.10;99.90
51579;DHT22;47998;53.242;6.386;2023-01-25T17:08:47;-0.10;99.90
51579;DHT22;47998;53.242;6.386;2023-01-25T17:11:14;-0.20;99.90
51579;DHT22;47998;53.242;6.386;2023-01-25T17:13:40;-0.20;99.90
51579;DHT22;47998;53.242;6.386;2023-01-25T17:16:06;-0.20;99.90
51579;DHT22;47998;53.242;6.386;2023-01-25T17:18:32;-0.30;99.90
51579;DHT22;47998;53.242;6.386;2023-01-25T17:21:00;-0.30;99.90
51579;DHT22;47998;53.242;6.386;2023-01-25T17:23:26;-0.30;99.90
51579;DHT22;47998;53.242;6.386;2023-01-25T17:25:53;-0.30;99.90
51579;DHT22;47998;53.242;6.386;2023-01-25T17:28:20;-0.40;99.90
51579;DHT22;47998;53.242;6.386;2023-01-25T17:30:46;-0.30;99.90
51579;DHT22;47998;53.242;6.386;2023-01-25T17:33:11;-0.30;99.90
51579;DHT22;47998;53.242;6.386;2023-01-25T17:35:38;-0.30;99.90
51579;DHT22;47998;53.242;6.386;2023-01-25T17:38:04;-0.40;99.90
51579;DHT22;47998;53.242;6.386;2023-01-25T17:40:30;-0.40;99.90
51579;DHT22;47998;53.242;6.386;2023-01-25T17:42:55;-0.40;99.90
51579;DHT22;47998;53.242;6.386;2023-01-25T17:45:21;-0.40;99.90
51579;DHT22;47998;53.242;6.386;2023-01-25T17:47:47;-0.50;99.90
51579;DHT22;47998;53.242;6.386;2023-01-25T17:50:12;-0.50;99.90
51579;DHT22;47998;53.242;6.386;2023-01-25T17:52:39;-0.40;99.90
51579;DHT22;47998;53.242;6.386;2023-01-25T17:55:05;-0.50;99.90
51579;DHT22;47998;53.242;6.386;2023-01-25T17:57:31;-0.50;99.90